Time;durP1;ratioP1;P1;durP2;ratioP2;P2;SDS_P1;SDS_P2;PMS_P1;PMS_P2;Temp;Humidity;BMP_temperature;BMP_pressure;BME280_temperature;BME280_humidity;BME280_pressure;Samples;Min_cycle;Max_cycle;Signal;HPM_P1;HPM_P2
2021/06/16 00:00:51;;;;;;;3.15;0.40;;;15.80;99.90;;;;;;5065038;28;20033;-79
2021/06/16 00:03:16;;;;;;;3.20;0.55;;;15.80;99.90;;;;;;5065106;28;20417;-79
2021/06/16 00:05:42;;;;;;;8.80;1.05;;;15.80;99.90;;;;;;5064935;28;20025;-79
2021/06/16 00:08:10;;;;;;;1.58;0.50;;;15.70;99.90;;;;;;5066297;28;20025;-79
2021/06/16 00:10:35;;;;;;;3.72;0.73;;;15.70;99.90;;;;;;5066347;28;20111;-79
2021/06/16 00:13:02;;;;;;;4.32;0.85;;;15.70;99.90;;;;;;5064941;28;20087;-79
2021/06/16 00:15:34;;;;;;;2.67;0.60;;;15.60;99.90;;;;;;5064762;28;20033;-79
2021/06/16 00:18:00;;;;;;;2.05;0.60;;;15.60;99.90;;;;;;5064456;28;20537;-79
2021/06/16 00:20:26;;;;;;;2.30;0.88;;;15.50;99.90;;;;;;5048434;28;20029;-79
2021/06/16 00:22:52;;;;;;;4.25;0.60;;;15.40;99.90;;;;;;5048117;28;20445;-80
2021/06/16 00:25:18;;;;;;;2.75;1.23;;;15.50;99.90;;;;;;5064687;28;20021;-79
2021/06/16 00:27:43;;;;;;;3.72;0.90;;;15.40;99.90;;;;;;5064659;28;20033;-79
2021/06/16 00:30:10;;;;;;;3.55;0.60;;;15.30;99.90;;;;;;5064546;28;20124;-79
2021/06/16 00:32:37;;;;;;;3.17;0.65;;;15.20;99.90;;;;;;5064476;28;20074;-79
2021/06/16 00:35:04;;;;;;;4.40;0.68;;;15.10;99.90;;;;;;5064608;28;20033;-79
2021/06/16 00:37:30;;;;;;;4.40;0.88;;;15.10;99.90;;;;;;5065679;28;20075;-79
2021/06/16 00:39:56;;;;;;;4.70;1.67;;;15.10;99.90;;;;;;5064622;28;20029;-79
2021/06/16 00:42:23;;;;;;;3.47;0.60;;;15.20;99.90;;;;;;5063940;28;20097;-79
2021/06/16 00:44:49;;;;;;;2.55;0.70;;;15.20;99.90;;;;;;5065762;28;20049;-79
2021/06/16 00:47:15;;;;;;;3.65;0.80;;;15.10;99.90;;;;;;5063546;28;20060;-79
2021/06/16 00:49:41;;;;;;;4.43;1.02;;;15.00;99.90;;;;;;5064212;28;20056;-79
2021/06/16 00:52:07;;;;;;;4.53;0.70;;;14.90;99.90;;;;;;5064184;28;20029;-78
2021/06/16 00:54:34;;;;;;;3.20;0.65;;;14.90;99.90;;;;;;5065573;28;20052;-79
2021/06/16 00:57:00;;;;;;;2.38;0.63;;;14.80;99.90;;;;;;5047326;28;20060;-79
2021/06/16 00:59:32;;;;;;;3.33;0.70;;;14.80;99.90;;;;;;5047581;28;20029;-78
2021/06/16 01:01:58;;;;;;;3.67;0.70;;;14.70;99.90;;;;;;5047323;28;20021;-79
2021/06/16 01:04:28;;;;;;;3.13;0.65;;;14.70;99.90;;;;;;5065497;28;20092;-79
2021/06/16 01:06:56;;;;;;;1.60;0.70;;;14.70;99.90;;;;;;5063886;28;20025;-79
2021/06/16 01:09:32;;;;;;;2.47;0.85;;;14.70;99.90;;;;;;5063999;28;20095;-79
2021/06/16 01:12:36;;;;;;;4.45;1.20;;;14.60;99.90;;;;;;5064096;28;20033;-79
2021/06/16 01:15:06;;;;;;;3.33;0.77;;;14.60;99.90;;;;;;5064080;28;20033;-79
2021/06/16 01:17:55;;;;;;;2.35;0.77;;;14.60;99.90;;;;;;5063526;28;20025;-79
2021/06/16 01:20:26;;;;;;;4.40;1.30;;;14.50;99.90;;;;;;5064081;28;20044;-79
2021/06/16 01:22:55;;;;;;;2.53;0.90;;;14.50;99.90;;;;;;5063934;28;20025;-79
2021/06/16 01:25:51;;;;;;;5.53;0.90;;;14.50;99.90;;;;;;5065158;28;20393;-79
2021/06/16 01:28:20;;;;;;;3.08;0.88;;;14.50;99.90;;;;;;5047056;28;20063;-79
2021/06/16 01:30:48;;;;;;;3.07;0.70;;;14.40;99.90;;;;;;5047357;28;20047;-79
2021/06/16 01:33:16;;;;;;;2.33;0.90;;;14.50;99.90;;;;;;5063676;28;20288;-80
2021/06/16 01:35:46;;;;;;;5.00;1.00;;;14.60;99.90;;;;;;5065115;28;20431;-80
2021/06/16 01:38:13;;;;;;;;;;;14.60;99.90;;;;;;5065691;28;20029;-79
2021/06/16 01:40:40;;;;;;;3.55;0.80;;;14.60;99.90;;;;;;5065250;28;19913;-79
2021/06/16 01:43:07;;;;;;;2.78;1.38;;;14.60;99.90;;;;;;5064993;28;20067;-79
2021/06/16 01:45:55;;;;;;;3.40;0.80;;;14.70;99.90;;;;;;5063506;28;20423;-79
2021/06/16 01:48:22;;;;;;;5.75;1.40;;;14.60;99.90;;;;;;5082201;28;20052;-79
2021/06/16 01:50:51;;;;;;;3.00;1.10;;;14.50;99.90;;;;;;5065790;28;20112;-79
2021/06/16 01:53:18;;;;;;;2.10;0.80;;;14.50;99.90;;;;;;5084777;28;20044;-79
2021/06/16 01:55:46;;;;;;;3.88;0.70;;;14.50;99.90;;;;;;5069686;28;20036;-79
2021/06/16 01:58:13;;;;;;;4.13;0.90;;;14.50;99.90;;;;;;5069456;28;20039;-79
2021/06/16 02:00:40;;;;;;;6.43;0.98;;;14.50;99.90;;;;;;5052787;28;20052;-79
2021/06/16 02:03:06;;;;;;;2.38;1.30;;;14.40;99.90;;;;;;5085905;28;20048;-79
2021/06/16 02:05:32;;;;;;;3.72;1.40;;;14.40;99.90;;;;;;5069400;28;20036;-79
2021/06/16 02:08:07;;;;;;;3.15;0.95;;;14.40;99.90;;;;;;5085942;28;20122;-79
2021/06/16 02:10:42;;;;;;;3.20;1.30;;;14.30;99.90;;;;;;5049402;28;20047;-79
2021/06/16 02:13:09;;;;;;;3.35;1.13;;;14.40;99.90;;;;;;5049212;28;20528;-79
2021/06/16 02:15:55;;;;;;;5.57;1.80;;;14.30;99.90;;;;;;5065499;28;20096;-79
2021/06/16 02:18:25;;;;;;;2.35;1.05;;;14.30;99.90;;;;;;5065589;28;20155;-79
2021/06/16 02:20:51;;;;;;;7.32;1.63;;;14.20;99.90;;;;;;5032710;28;20033;-79
2021/06/16 02:23:17;;;;;;;3.03;1.00;;;14.30;99.90;;;;;;5065803;28;20029;-79
2021/06/16 02:25:43;;;;;;;2.65;1.30;;;14.20;99.90;;;;;;5063159;28;20077;-79
2021/06/16 02:28:09;;;;;;;3.78;1.25;;;14.10;99.90;;;;;;5046481;28;20030;-79
2021/06/16 02:30:35;;;;;;;2.45;1.35;;;14.20;99.90;;;;;;5046774;28;20036;-79
2021/06/16 02:33:00;;;;;;;2.45;0.98;;;14.20;99.90;;;;;;5046713;28;20029;-80
2021/06/16 02:35:26;;;;;;;5.05;1.42;;;14.10;99.90;;;;;;5046430;28;20089;-79
2021/06/16 02:38:00;;;;;;;5.28;1.30;;;14.20;99.90;;;;;;5046566;28;20099;-80
2021/06/16 02:40:26;;;;;;;6.38;1.73;;;14.20;99.90;;;;;;5046711;28;20060;-80
2021/06/16 02:42:52;;;;;;;4.30;1.33;;;14.20;99.90;;;;;;5046751;28;20096;-80
2021/06/16 02:45:19;;;;;;;3.78;1.00;;;14.20;99.90;;;;;;5046326;28;20070;-79
2021/06/16 02:47:47;;;;;;;5.05;1.10;;;14.20;99.90;;;;;;5046429;28;20079;-79
2021/06/16 02:50:16;;;;;;;2.47;1.10;;;14.20;99.90;;;;;;5062986;28;20045;-79
2021/06/16 02:52:43;;;;;;;6.13;1.25;;;14.20;99.90;;;;;;5029857;28;20029;-79
2021/06/16 02:55:10;;;;;;;2.70;1.45;;;14.10;99.90;;;;;;5046309;28;20052;-80
2021/06/16 02:57:39;;;;;;;4.13;1.48;;;14.10;99.90;;;;;;5047642;28;20409;-79
2021/06/16 03:00:08;;;;;;;4.78;1.50;;;14.20;99.90;;;;;;5047515;28;20033;-80
2021/06/16 03:02:36;;;;;;;4.57;1.10;;;14.10;99.90;;;;;;5055418;28;20519;-80
2021/06/16 03:05:06;;;;;;;4.20;1.13;;;14.10;99.90;;;;;;5081937;28;20096;-79
2021/06/16 03:07:34;;;;;;;4.63;1.55;;;14.10;99.90;;;;;;5066106;28;20032;-79
2021/06/16 03:10:00;;;;;;;4.28;1.23;;;14.10;99.90;;;;;;5049223;28;20063;-80
2021/06/16 03:12:27;;;;;;;3.33;0.98;;;14.10;99.90;;;;;;5049753;28;20064;-79
2021/06/16 03:14:53;;;;;;;6.18;1.17;;;14.10;99.90;;;;;;5067269;28;20037;-80
2021/06/16 03:17:20;;;;;;;5.03;1.15;;;14.10;99.90;;;;;;5065822;28;20033;-79
2021/06/16 03:19:47;;;;;;;3.70;1.20;;;14.10;99.90;;;;;;5049152;28;20040;-80
2021/06/16 03:22:14;;;;;;;4.03;1.40;;;14.10;99.90;;;;;;5065869;28;20089;-79
2021/06/16 03:24:42;;;;;;;6.03;1.20;;;14.20;99.90;;;;;;5065858;28;20072;-80
2021/06/16 03:27:08;;;;;;;3.78;1.60;;;14.10;99.90;;;;;;5065580;28;20033;-79
2021/06/16 03:29:35;;;;;;;5.88;1.70;;;14.20;99.90;;;;;;5065386;28;20040;-79
2021/06/16 03:32:02;;;;;;;3.88;1.30;;;14.10;99.90;;;;;;5048519;28;20037;-80
2021/06/16 03:34:28;;;;;;;3.17;1.48;;;14.10;99.90;;;;;;5048268;28;20037;-79
2021/06/16 03:36:56;;;;;;;2.90;1.27;;;14.10;99.90;;;;;;5064664;28;20021;-80
2021/06/16 03:39:22;;;;;;;4.63;1.77;;;14.10;99.90;;;;;;5064745;28;20064;-80
2021/06/16 03:41:47;;;;;;;5.15;1.40;;;14.20;99.90;;;;;;5064700;28;20029;-80
2021/06/16 03:44:13;;;;;;;6.20;1.15;;;14.20;99.90;;;;;;5064556;28;20036;-80
2021/06/16 03:46:40;;;;;;;4.15;1.40;;;14.20;99.90;;;;;;5065679;28;20036;-80
2021/06/16 03:49:10;;;;;;;7.05;1.38;;;14.20;99.90;;;;;;5064350;28;20055;-79
2021/06/16 03:51:39;;;;;;;5.07;1.20;;;14.20;99.90;;;;;;5065693;28;20405;-80
2021/06/16 03:54:11;;;;;;;5.20;1.90;;;14.20;99.90;;;;;;5065798;28;20032;-79
2021/06/16 03:56:41;;;;;;;4.55;1.75;;;14.20;99.90;;;;;;5064283;28;20040;-79
2021/06/16 03:59:09;;;;;;;4.80;1.50;;;14.30;99.90;;;;;;5064245;28;20029;-79
2021/06/16 04:01:37;;;;;;;2.28;1.23;;;14.20;99.90;;;;;;5065651;28;20385;-79
2021/06/16 04:04:05;;;;;;;2.35;1.08;;;14.20;99.90;;;;;;5065460;28;20082;-79
2021/06/16 04:06:31;;;;;;;5.25;1.52;;;14.20;99.90;;;;;;5064041;28;20095;-79
2021/06/16 04:08:57;;;;;;;2.55;1.20;;;14.20;99.90;;;;;;5060573;28;20040;-79
2021/06/16 04:11:23;;;;;;;4.45;1.65;;;14.30;99.90;;;;;;5045423;28;20113;-79
2021/06/16 04:13:49;;;;;;;5.60;1.23;;;14.30;99.90;;;;;;5045522;28;20030;-79
2021/06/16 04:16:15;;;;;;;3.35;1.40;;;14.30;99.90;;;;;;5041821;28;20033;-79
2021/06/16 04:18:42;;;;;;;7.05;2.15;;;14.30;99.90;;;;;;5064421;28;20074;-79
2021/06/16 04:21:08;;;;;;;4.85;1.38;;;14.40;99.90;;;;;;5063664;28;20477;-79
2021/06/16 04:23:34;;;;;;;4.72;1.77;;;14.50;99.90;;;;;;5065081;28;20385;-80
2021/06/16 04:25:59;;;;;;;3.17;1.67;;;14.50;99.90;;;;;;5064353;28;20033;-80
2021/06/16 04:28:25;;;;;;;3.47;1.40;;;14.60;99.90;;;;;;5066412;28;20052;-80
2021/06/16 04:30:51;;;;;;;4.70;1.75;;;14.80;99.90;;;;;;5064940;28;20034;-80
2021/06/16 04:33:16;;;;;;;7.25;1.50;;;14.90;99.90;;;;;;5063704;28;20100;-80
2021/06/16 04:35:42;;;;;;;3.13;1.85;;;14.90;99.90;;;;;;5063609;28;20037;-80
2021/06/16 04:38:08;;;;;;;4.93;1.45;;;15.10;99.90;;;;;;5056433;28;20035;-79
2021/06/16 04:40:33;;;;;;;4.20;1.75;;;15.20;99.90;;;;;;5072051;28;20025;-80
2021/06/16 04:42:59;;;;;;;3.90;1.38;;;15.40;99.90;;;;;;5038787;28;20024;-80
2021/06/16 04:45:45;;;;;;;3.53;1.35;;;15.50;99.90;;;;;;5046674;28;20029;-81
2021/06/16 04:48:10;;;;;;;4.75;1.20;;;15.60;99.90;;;;;;5081988;28;20647;-80
2021/06/16 04:50:36;;;;;;;8.65;2.03;;;15.80;99.90;;;;;;5048829;28;20367;-80
2021/06/16 04:53:02;;;;;;;3.47;1.15;;;16.00;99.90;;;;;;5082587;28;20041;-81
2021/06/16 04:55:27;;;;;;;3.28;1.55;;;16.20;99.90;;;;;;5049035;28;20082;-80
2021/06/16 04:57:53;;;;;;;3.85;1.30;;;16.20;99.90;;;;;;5063177;28;20436;-80
2021/06/16 05:00:21;;;;;;;4.15;1.40;;;16.40;99.90;;;;;;5048629;28;20041;-80
2021/06/16 05:02:47;;;;;;;6.07;1.48;;;16.50;99.90;;;;;;5065279;28;20029;-81
2021/06/16 05:05:15;;;;;;;4.90;1.40;;;16.70;99.90;;;;;;5082257;28;20120;-81
2021/06/16 05:07:41;;;;;;;5.90;1.30;;;16.80;99.90;;;;;;5065316;28;20044;-81
2021/06/16 05:10:07;;;;;;;6.72;1.70;;;16.90;99.90;;;;;;5065228;28;20055;-81
2021/06/16 05:12:32;;;;;;;3.85;1.60;;;17.10;99.90;;;;;;5078862;28;20071;-81
2021/06/16 05:14:58;;;;;;;4.00;1.48;;;17.30;99.90;;;;;;5025898;28;20531;-82
2021/06/16 05:17:24;;;;;;;4.22;1.23;;;17.40;99.90;;;;;;5080994;28;20242;-81
2021/06/16 05:19:56;;;;;;;3.60;1.30;;;17.50;99.90;;;;;;5080826;28;20119;-81
2021/06/16 05:22:22;;;;;;;4.78;1.10;;;17.60;99.90;;;;;;5065116;28;20032;-81
2021/06/16 05:24:48;;;;;;;4.80;1.48;;;17.80;99.90;;;;;;5061874;28;20033;-79
2021/06/16 05:27:17;;;;;;;4.35;1.30;;;17.80;99.90;;;;;;5047094;28;20057;-81
2021/06/16 05:29:44;;;;;;;3.85;1.17;;;17.90;99.90;;;;;;5050476;28;20153;-81
2021/06/16 05:32:09;;;;;;;5.13;1.65;;;18.00;99.90;;;;;;5050128;28;20037;-81
2021/06/16 05:34:35;;;;;;;3.15;1.15;;;18.20;99.90;;;;;;5050514;28;20044;-81
2021/06/16 05:37:01;;;;;;;2.95;1.15;;;18.30;99.90;;;;;;5050306;28;20090;-81
2021/06/16 05:39:27;;;;;;;4.40;1.73;;;18.50;99.90;;;;;;5050318;28;20485;-81
2021/06/16 05:41:53;;;;;;;3.28;1.40;;;18.50;99.90;;;;;;5050278;28;20040;-81
2021/06/16 05:44:19;;;;;;;2.45;1.20;;;18.70;99.90;;;;;;5067048;28;20397;-81
2021/06/16 05:46:44;;;;;;;4.07;1.02;;;18.80;99.90;;;;;;5049326;28;20049;-80
2021/06/16 05:49:10;;;;;;;3.65;1.00;;;18.90;99.90;;;;;;5067693;28;20484;-81
2021/06/16 05:51:36;;;;;;;2.55;1.20;;;19.10;99.90;;;;;;5049711;28;20035;-80
2021/06/16 05:54:02;;;;;;;2.50;0.82;;;19.40;99.90;;;;;;5050042;28;20033;-80
2021/06/16 05:56:27;;;;;;;3.90;2.03;;;19.60;99.90;;;;;;5049896;28;20033;-81
2021/06/16 05:58:53;;;;;;;2.50;1.45;;;19.70;99.90;;;;;;5066371;28;20035;-80
2021/06/16 06:01:18;;;;;;;5.00;1.15;;;19.80;99.90;;;;;;5049916;28;20031;-81
2021/06/16 06:03:44;;;;;;;3.65;1.05;;;19.90;99.90;;;;;;5049892;28;20037;-81
2021/06/16 06:06:10;;;;;;;4.07;0.73;;;20.00;99.90;;;;;;5067856;28;20020;-81
2021/06/16 06:08:36;;;;;;;2.45;0.70;;;20.20;99.90;;;;;;5083082;28;20072;-81
2021/06/16 06:11:02;;;;;;;2.03;0.60;;;20.30;99.90;;;;;;5066493;28;20032;-81
2021/06/16 06:13:28;;;;;;;4.22;0.80;;;20.70;99.90;;;;;;5066624;28;20040;-81
2021/06/16 06:15:54;;;;;;;2.05;0.70;;;20.80;99.90;;;;;;5050485;28;20033;-81
2021/06/16 06:18:20;;;;;;;3.75;0.70;;;20.80;99.90;;;;;;5049777;28;20083;-81
2021/06/16 06:20:46;;;;;;;2.90;0.70;;;20.80;99.90;;;;;;5066440;28;20033;-81
2021/06/16 06:23:11;;;;;;;2.47;0.70;;;21.00;99.90;;;;;;5066311;28;20081;-82
2021/06/16 06:25:37;;;;;;;4.63;1.15;;;21.00;99.90;;;;;;5066005;28;20100;-81
2021/06/16 06:28:03;;;;;;;2.13;0.70;;;21.10;99.90;;;;;;5065859;28;20029;-81
2021/06/16 06:30:29;;;;;;;2.47;0.70;;;21.20;99.90;;;;;;5067373;28;20453;-81
2021/06/16 06:32:55;;;;;;;3.63;0.65;;;21.40;99.90;;;;;;5049372;28;20104;-82
2021/06/16 06:35:20;;;;;;;2.78;0.85;;;21.70;99.90;;;;;;5065895;28;20043;-81
2021/06/16 06:37:46;;;;;;;2.95;0.90;;;21.80;99.90;;;;;;5049099;28;20029;-82
2021/06/16 06:40:13;;;;;;;2.58;0.82;;;22.00;99.90;;;;;;5064792;28;20036;-82
2021/06/16 06:42:38;;;;;;;4.63;1.42;;;22.00;99.90;;;;;;5066040;28;20044;-82
2021/06/16 06:45:06;;;;;;;3.35;0.60;;;22.10;99.90;;;;;;5049145;28;20038;-82
2021/06/16 06:47:31;;;;;;;2.35;0.88;;;22.20;99.90;;;;;;5066700;28;20049;-82
2021/06/16 06:49:57;;;;;;;2.78;0.90;;;22.20;99.90;;;;;;5065596;28;20044;-82
2021/06/16 06:52:23;;;;;;;2.55;0.93;;;22.50;99.90;;;;;;5048977;28;20025;-82
2021/06/16 06:54:49;;;;;;;1.77;0.60;;;22.60;99.90;;;;;;5066798;28;20032;-82
2021/06/16 06:57:14;;;;;;;4.30;0.70;;;22.70;99.90;;;;;;5048876;28;20032;-82
2021/06/16 06:59:40;;;;;;;1.80;0.60;;;22.80;99.90;;;;;;5065536;28;20059;-82
2021/06/16 07:02:06;;;;;;;3.25;0.70;;;22.80;99.90;;;;;;5048712;28;20024;-81
2021/06/16 07:04:32;;;;;;;4.13;1.05;;;22.90;99.90;;;;;;5065393;28;20033;-82
2021/06/16 07:06:58;;;;;;;2.30;0.90;;;23.00;99.90;;;;;;5065425;28;20182;-82
2021/06/16 07:09:24;;;;;;;3.03;0.93;;;23.00;99.90;;;;;;5065285;28;20064;-81
2021/06/16 07:11:51;;;;;;;3.03;0.73;;;23.20;99.90;;;;;;5065226;28;20028;-82
2021/06/16 07:14:16;;;;;;;3.00;0.65;;;23.30;99.90;;;;;;5065386;28;20041;-82
2021/06/16 07:16:42;;;;;;;3.17;0.70;;;23.40;99.90;;;;;;5048163;28;20060;-82
2021/06/16 07:19:08;;;;;;;2.65;0.60;;;23.40;99.90;;;;;;5065248;28;20033;-81
2021/06/16 07:21:33;;;;;;;2.35;0.70;;;23.30;99.90;;;;;;5065099;28;20033;-81
2021/06/16 07:23:59;;;;;;;3.22;0.50;;;23.40;99.90;;;;;;5066448;28;20032;-81
2021/06/16 07:26:25;;;;;;;2.47;0.40;;;23.60;99.90;;;;;;5064796;28;20107;-81
2021/06/16 07:28:50;;;;;;;3.50;0.50;;;24.00;99.90;;;;;;5064999;28;20041;-80
2021/06/16 07:31:16;;;;;;;4.03;0.40;;;23.90;99.90;;;;;;5064858;28;20032;-81
2021/06/16 07:33:42;;;;;;;1.23;0.50;;;23.80;99.90;;;;;;5065103;28;20120;-83
2021/06/16 07:36:07;;;;;;;1.30;0.40;;;23.70;99.90;;;;;;5048116;28;20029;-82
2021/06/16 07:38:33;;;;;;;1.92;0.40;;;23.70;99.90;;;;;;5064730;28;20390;-82
2021/06/16 07:40:59;;;;;;;3.20;0.68;;;24.00;99.90;;;;;;5064724;28;20041;-82
2021/06/16 07:43:25;;;;;;;1.75;0.40;;;24.20;99.90;;;;;;5047958;28;20036;-81
2021/06/16 07:45:51;;;;;;;1.75;0.52;;;24.30;99.90;;;;;;5064519;28;20018;-81
2021/06/16 07:48:16;;;;;;;1.90;0.30;;;24.60;99.90;;;;;;5047915;28;20140;-81
2021/06/16 07:50:42;;;;;;;1.58;0.50;;;24.70;99.90;;;;;;5065923;28;20029;-81
2021/06/16 07:53:08;;;;;;;1.70;0.50;;;24.60;99.90;;;;;;5064556;28;20037;-82
2021/06/16 07:55:35;;;;;;;1.75;0.35;;;24.70;99.90;;;;;;5064532;28;20029;-81
2021/06/16 07:58:02;;;;;;;1.40;0.38;;;24.60;99.90;;;;;;5064377;28;20025;-81
2021/06/16 08:00:28;;;;;;;1.77;0.70;;;24.80;99.90;;;;;;5065874;28;20059;-81
2021/06/16 08:02:54;;;;;;;4.03;0.47;;;25.00;99.90;;;;;;5065678;28;20028;-80
2021/06/16 08:05:19;;;;;;;2.42;0.50;;;25.10;99.90;;;;;;5064367;28;20032;-80
2021/06/16 08:07:45;;;;;;;1.80;0.30;;;25.30;99.90;;;;;;5064380;28;20039;-80
2021/06/16 08:10:12;;;;;;;0.80;0.30;;;25.40;99.90;;;;;;5077558;28;20089;-81
2021/06/16 08:12:38;;;;;;;1.92;0.40;;;25.60;99.90;;;;;;5027761;28;20473;-81
2021/06/16 08:15:06;;;;;;;2.22;0.50;;;25.20;99.90;;;;;;5045442;28;20081;-81
2021/06/16 08:17:32;;;;;;;1.98;0.30;;;25.20;99.90;;;;;;5044180;28;20029;-80
2021/06/16 08:19:58;;;;;;;1.50;0.40;;;25.50;99.90;;;;;;5044412;28;20160;-81
2021/06/16 08:22:23;;;;;;;1.63;0.30;;;25.50;99.90;;;;;;5044210;28;20041;-80
2021/06/16 08:24:49;;;;;;;3.03;0.40;;;25.60;99.90;;;;;;5027419;28;20040;-81
2021/06/16 08:27:15;;;;;;;3.25;0.30;;;25.60;99.90;;;;;;5027398;28;20051;-81
2021/06/16 08:29:40;;;;;;;1.17;0.40;;;25.70;99.90;;;;;;5044040;28;20041;-80
2021/06/16 08:32:07;;;;;;;1.10;0.30;;;26.10;99.90;;;;;;5044039;28;20029;-81
2021/06/16 08:34:32;;;;;;;2.53;0.40;;;26.00;99.90;;;;;;5043786;28;20025;-81
2021/06/16 08:36:58;;;;;;;1.85;0.35;;;26.00;99.90;;;;;;5045287;28;20501;-81
2021/06/16 08:39:24;;;;;;;1.40;0.45;;;25.90;99.90;;;;;;5044100;28;20033;-81
2021/06/16 08:41:50;;;;;;;3.35;0.40;;;25.80;99.90;;;;;;5043783;28;20071;-81
2021/06/16 08:44:16;;;;;;;1.77;0.40;;;26.20;99.90;;;;;;5043754;28;20050;-81
2021/06/16 08:46:43;;;;;;;0.68;0.30;;;26.50;99.90;;;;;;5044843;28;20025;-81
2021/06/16 08:49:09;;;;;;;1.90;0.40;;;26.60;99.90;;;;;;5044091;28;20476;-83
2021/06/16 08:51:36;;;;;;;2.58;0.43;;;26.40;99.90;;;;;;5043708;28;20300;-81
2021/06/16 08:54:02;;;;;;;1.55;0.32;;;26.50;99.90;;;;;;5043766;28;20033;-81
2021/06/16 08:56:28;;;;;;;1.98;0.32;;;26.80;99.90;;;;;;5045115;28;20033;-81
2021/06/16 08:58:54;;;;;;;1.08;0.38;;;27.00;99.90;;;;;;5026976;28;20039;-81
2021/06/16 09:01:20;;;;;;;3.42;0.60;;;26.70;99.90;;;;;;5043707;28;20029;-81
2021/06/16 09:03:46;;;;;;;2.85;0.40;;;26.90;99.90;;;;;;5061916;28;20416;-81
2021/06/16 09:06:14;;;;;;;2.17;0.50;;;26.80;99.90;;;;;;5080244;28;20029;-81
2021/06/16 09:09:02;;;;;;;1.00;0.32;;;26.90;99.90;;;;;;5063566;28;20041;-81
2021/06/16 09:11:47;;;;;;;1.25;0.40;;;27.30;99.90;;;;;;5063707;28;20112;-81
2021/06/16 09:14:22;;;;;;;1.02;0.40;;;27.40;99.10;;;;;;5064755;28;20040;-80
2021/06/16 09:16:49;;;;;;;1.45;0.40;;;27.40;99.40;;;;;;5047196;28;20056;-80
2021/06/16 09:19:26;;;;;;;1.02;0.38;;;27.40;99.90;;;;;;5063961;28;20025;-81
2021/06/16 09:21:59;;;;;;;1.10;0.30;;;27.30;98.50;;;;;;5046864;28;20033;-81
2021/06/16 09:24:38;;;;;;;2.35;0.40;;;27.30;98.60;;;;;;5064568;28;20029;-79
2021/06/16 09:27:04;;;;;;;3.15;0.50;;;27.40;98.90;;;;;;5064776;28;20039;-81
2021/06/16 09:29:30;;;;;;;1.52;0.30;;;27.60;98.60;;;;;;5063227;28;20041;-81
2021/06/16 09:32:05;;;;;;;1.05;0.30;;;27.90;98.60;;;;;;5064766;28;20426;-81
2021/06/16 09:34:31;;;;;;;1.80;0.40;;;27.50;97.30;;;;;;5063290;28;20029;-81
2021/06/16 09:37:03;;;;;;;2.35;0.40;;;27.50;98.70;;;;;;5064620;28;20040;-80
2021/06/16 09:39:29;;;;;;;2.92;0.50;;;28.00;98.90;;;;;;5064642;28;20029;-80
2021/06/16 09:42:03;;;;;;;1.65;0.63;;;28.20;97.50;;;;;;5064586;28;20039;-81
2021/06/16 09:44:40;;;;;;;2.00;0.30;;;28.10;97.50;;;;;;5063044;28;20033;-80
2021/06/16 09:47:12;;;;;;;1.92;0.40;;;28.30;97.50;;;;;;5062872;28;20445;-80
2021/06/16 09:49:55;;;;;;;1.48;0.40;;;28.20;97.30;;;;;;5064572;28;20037;-80
2021/06/16 09:52:35;;;;;;;1.73;0.30;;;27.90;96.60;;;;;;5063336;28;20058;-81
2021/06/16 09:55:07;;;;;;;1.30;0.40;;;27.70;96.60;;;;;;5063146;28;20036;-81
2021/06/16 09:57:33;;;;;;;1.75;0.30;;;27.70;97.10;;;;;;5063071;28;20047;-80
2021/06/16 10:00:09;;;;;;;1.13;0.50;;;27.90;97.90;;;;;;5062932;28;20039;-81
2021/06/16 10:02:40;;;;;;;1.98;0.40;;;28.20;96.90;;;;;;5064493;28;20083;-80
2021/06/16 10:05:06;;;;;;;2.17;0.40;;;28.40;96.50;;;;;;5064370;28;20033;-80
2021/06/16 10:07:36;;;;;;;1.85;0.43;;;28.00;97.00;;;;;;5062955;28;20093;-81
2021/06/16 10:10:07;;;;;;;2.13;0.40;;;28.10;97.20;;;;;;5064112;28;20045;-80
2021/06/16 10:12:44;;;;;;;1.55;0.30;;;28.60;96.80;;;;;;5063080;28;20474;-80
2021/06/16 10:15:16;;;;;;;1.65;0.40;;;29.00;96.70;;;;;;5064579;28;20052;-81
2021/06/16 10:17:42;;;;;;;2.45;0.30;;;29.00;95.60;;;;;;5066755;28;20108;-80
2021/06/16 10:20:13;;;;;;;2.13;0.60;;;28.70;96.40;;;;;;5067680;28;20420;-81
2021/06/16 10:22:39;;;;;;;1.00;0.30;;;28.50;96.10;;;;;;5067832;28;20036;-81
2021/06/16 10:25:06;;;;;;;2.40;0.40;;;29.10;96.50;;;;;;5067547;28;20024;-81
2021/06/16 10:27:37;;;;;;;1.30;0.30;;;28.90;95.40;;;;;;5066330;28;20078;-81
2021/06/16 10:30:13;;;;;;;1.35;0.30;;;28.60;95.60;;;;;;5066163;28;20240;-80
2021/06/16 10:32:45;;;;;;;0.80;0.38;;;28.70;96.40;;;;;;5067518;28;20034;-81
2021/06/16 10:35:26;;;;;;;1.90;0.30;;;28.90;96.20;;;;;;5067366;28;20031;-80
2021/06/16 10:38:12;;;;;;;1.98;0.40;;;28.80;95.90;;;;;;5066268;28;20389;-80
2021/06/16 10:40:46;;;;;;;1.88;0.40;;;29.00;95.80;;;;;;5067360;28;20043;-80
2021/06/16 10:43:17;;;;;;;2.70;0.40;;;28.60;95.00;;;;;;5049540;28;20036;-80
2021/06/16 10:46:07;;;;;;;1.58;0.55;;;28.60;95.10;;;;;;5065489;28;20053;-80
2021/06/16 10:49:04;;;;;;;1.10;0.30;;;29.00;96.20;;;;;;5084518;28;20048;-80
2021/06/16 10:51:35;;;;;;;1.77;0.40;;;29.20;95.50;;;;;;5068969;28;20052;-80
2021/06/16 10:54:15;;;;;;;1.02;0.40;;;29.40;95.80;;;;;;5084937;28;20041;-80
2021/06/16 10:56:46;;;;;;;1.20;0.40;;;29.70;95.30;;;;;;5068115;28;20032;-80
2021/06/16 10:59:12;;;;;;;1.08;0.30;;;29.60;95.10;;;;;;5052448;28;20067;-80
2021/06/16 11:01:49;;;;;;;2.78;0.40;;;29.70;95.70;;;;;;5067595;28;20139;-80
2021/06/16 11:04:42;;;;;;;1.30;0.45;;;29.50;96.80;;;;;;5067738;28;20036;-80
2021/06/16 11:07:32;;;;;;;1.00;0.30;;;29.50;95.10;;;;;;5065121;28;20040;-81
2021/06/16 11:10:06;;;;;;;0.85;0.30;;;29.80;94.90;;;;;;5067753;28;20424;-80
2021/06/16 11:12:54;;;;;;;0.70;0.38;;;29.80;94.70;;;;;;5084332;28;20040;-80
2021/06/16 11:15:25;;;;;;;2.15;0.50;;;29.60;95.60;;;;;;5084047;28;20043;-80
2021/06/16 11:17:52;;;;;;;1.30;0.40;;;29.60;94.80;;;;;;5067502;28;20268;-81
2021/06/16 11:20:25;;;;;;;2.50;0.50;;;29.40;94.70;;;;;;5067508;28;20057;-81
2021/06/16 11:22:59;;;;;;;3.72;0.60;;;29.40;94.40;;;;;;5084129;28;20028;-81
2021/06/16 11:25:38;;;;;;;3.30;0.73;;;29.40;94.60;;;;;;5075970;28;20115;-80
2021/06/16 11:28:08;;;;;;;1.88;0.50;;;29.40;94.90;;;;;;5065310;28;20033;-82
2021/06/16 11:30:43;;;;;;;3.45;1.02;;;29.60;93.90;;;;;;5066183;28;20096;-82
2021/06/16 11:33:25;;;;;;;2.53;0.40;;;29.40;94.30;;;;;;5065225;28;20037;-82
2021/06/16 11:35:52;;;;;;;2.55;0.50;;;29.80;94.60;;;;;;5048200;28;20473;-81
2021/06/16 11:38:20;;;;;;;1.55;0.50;;;30.10;95.40;;;;;;5048326;28;20021;-82
2021/06/16 11:40:52;;;;;;;2.38;0.50;;;30.10;94.10;;;;;;5064956;28;20051;-81
2021/06/16 11:43:40;;;;;;;1.48;0.50;;;30.20;95.30;;;;;;5048397;28;20096;-81
2021/06/16 11:46:29;;;;;;;1.60;0.45;;;30.20;94.40;;;;;;5064297;28;20036;-81
2021/06/16 11:49:11;;;;;;;1.63;0.50;;;31.40;93.60;;;;;;5064510;28;20134;-82
2021/06/16 11:51:40;;;;;;;2.28;0.50;;;31.50;93.20;;;;;;5064647;28;20187;-82
2021/06/16 11:56:54;;;;;;;0.98;0.40;;;30.80;93.10;;;;;;5064421;28;20045;-82
2021/06/16 11:59:30;;;;;;;1.13;0.50;;;30.90;93.50;;;;;;5064456;28;20443;-83
2021/06/16 12:02:23;;;;;;;1.85;0.52;;;30.60;93.40;;;;;;5064296;28;20389;-81
2021/06/16 12:05:05;;;;;;;2.38;0.77;;;30.70;93.30;;;;;;5063886;28;20037;-82
2021/06/16 12:07:37;;;;;;;1.75;0.50;;;30.70;93.40;;;;;;5064268;28;20048;-82
2021/06/16 12:10:11;;;;;;;3.10;0.50;;;30.70;93.30;;;;;;5064141;28;20040;-83
2021/06/16 12:12:48;;;;;;;1.92;0.50;;;30.80;93.30;;;;;;5047673;28;20028;-82
2021/06/16 12:15:16;;;;;;;2.35;0.80;;;30.90;93.80;;;;;;5047553;28;20029;-82
2021/06/16 12:17:57;;;;;;;1.65;0.50;;;31.10;93.30;;;;;;5047268;28;20079;-82
2021/06/16 12:20:24;;;;;;;1.98;0.50;;;31.10;93.60;;;;;;5065574;28;20381;-83
2021/06/16 12:22:50;;;;;;;2.33;0.60;;;31.50;93.20;;;;;;5065281;28;20029;-82
2021/06/16 12:25:31;;;;;;;2.17;0.60;;;30.80;93.50;;;;;;5047187;28;20047;-82
2021/06/16 12:27:57;;;;;;;1.48;0.60;;;31.40;93.10;;;;;;5047250;28;20112;-83
2021/06/16 12:30:26;;;;;;;2.30;0.60;;;31.30;92.80;;;;;;5063789;28;20048;-82
2021/06/16 12:33:22;;;;;;;1.50;0.50;;;31.20;94.00;;;;;;5063819;28;20021;-82
2021/06/16 12:36:17;;;;;;;2.05;0.50;;;31.80;93.30;;;;;;5046958;28;20044;-83
2021/06/16 12:38:47;;;;;;;1.20;0.55;;;31.50;92.70;;;;;;5062916;28;20037;-84
2021/06/16 12:41:37;;;;;;;1.60;0.52;;;31.40;93.20;;;;;;5061013;28;20371;-82
2021/06/16 12:44:14;;;;;;;2.90;0.50;;;31.30;93.10;;;;;;5063499;28;20479;-82
2021/06/16 12:47:04;;;;;;;1.95;0.70;;;31.00;93.10;;;;;;5063351;28;20029;-82
2021/06/16 12:49:33;;;;;;;4.10;1.13;;;31.00;94.90;;;;;;5063338;28;20045;-82
2021/06/16 12:52:04;;;;;;;2.33;0.55;;;30.40;94.00;;;;;;5063519;28;20093;-82
2021/06/16 12:54:36;;;;;;;3.58;0.68;;;31.00;94.10;;;;;;5063570;28;20028;-82
2021/06/16 12:57:07;;;;;;;1.92;0.70;;;31.20;93.50;;;;;;5063049;28;20033;-82
2021/06/16 12:59:34;;;;;;;3.78;1.15;;;31.10;93.50;;;;;;5063538;28;20071;-83
2021/06/16 13:02:00;;;;;;;1.20;0.63;;;31.10;94.20;;;;;;5063251;28;20037;-83